sensor_id;sensor_type;location;lat;lon;timestamp;P1;durP1;ratioP1;P2;durP2;ratioP2
32734;SDS011;19112;51.076;3.706;2023-06-24T00:01:00;17.63;;;6.15;;
32734;SDS011;19112;51.076;3.706;2023-06-24T00:03:26;15.57;;;6.40;;
32734;SDS011;19112;51.076;3.706;2023-06-24T00:05:52;14.18;;;6.35;;
32734;SDS011;19112;51.076;3.706;2023-06-24T00:08:18;14.30;;;5.82;;
32734;SDS011;19112;51.076;3.706;2023-06-24T00:10:48;15.18;;;6.50;;
32734;SDS011;19112;51.076;3.706;2023-06-24T00:13:17;14.70;;;6.55;;
32734;SDS011;19112;51.076;3.706;2023-06-24T00:15:43;15.57;;;6.68;;
32734;SDS011;19112;51.076;3.706;2023-06-24T00:18:09;16.92;;;6.82;;
32734;SDS011;19112;51.076;3.706;2023-06-24T00:20:35;18.38;;;7.28;;
32734;SDS011;19112;51.076;3.706;2023-06-24T00:23:01;16.27;;;6.97;;
32734;SDS011;19112;51.076;3.706;2023-06-24T00:25:27;17.73;;;7.28;;
32734;SDS011;19112;51.076;3.706;2023-06-24T00:27:57;15.90;;;6.65;;
32734;SDS011;19112;51.076;3.706;2023-06-24T00:30:23;15.25;;;6.50;;
32734;SDS011;19112;51.076;3.706;2023-06-24T00:32:51;16.83;;;6.82;;
32734;SDS011;19112;51.076;3.706;2023-06-24T00:35:17;16.38;;;7.07;;
32734;SDS011;19112;51.076;3.706;2023-06-24T00:37:43;16.95;;;6.88;;
32734;SDS011;19112;51.076;3.706;2023-06-24T00:40:10;16.42;;;7.00;;
32734;SDS011;19112;51.076;3.706;2023-06-24T00:42:40;19.48;;;7.18;;
32734;SDS011;19112;51.076;3.706;2023-06-24T00:45:08;20.20;;;8.15;;
32734;SDS011;19112;51.076;3.706;2023-06-24T00:47:35;13.95;;;5.65;;
32734;SDS011;19112;51.076;3.706;2023-06-24T00:50:01;17.33;;;6.63;;
32734;SDS011;19112;51.076;3.706;2023-06-24T00:52:27;15.80;;;6.78;;
32734;SDS011;19112;51.076;3.706;2023-06-24T00:54:53;16.00;;;6.80;;
32734;SDS011;19112;51.076;3.706;2023-06-24T00:57:20;17.08;;;6.35;;
32734;SDS011;19112;51.076;3.706;2023-06-24T00:59:50;15.13;;;6.50;;
32734;SDS011;19112;51.076;3.706;2023-06-24T01:02:18;16.83;;;6.70;;
32734;SDS011;19112;51.076;3.706;2023-06-24T01:04:47;17.38;;;6.00;;
32734;SDS011;19112;51.076;3.706;2023-06-24T01:07:14;17.23;;;6.88;;
32734;SDS011;19112;51.076;3.706;2023-06-24T01:09:41;17.23;;;6.80;;
32734;SDS011;19112;51.076;3.706;2023-06-24T01:12:07;16.00;;;6.32;;
32734;SDS011;19112;51.076;3.706;2023-06-24T01:14:34;16.48;;;6.55;;
32734;SDS011;19112;51.076;3.706;2023-06-24T01:17:19;16.73;;;7.07;;
32734;SDS011;19112;51.076;3.706;2023-06-24T01:40:29;16.40;;;6.40;;
32734;SDS011;19112;51.076;3.706;2023-06-24T01:42:37;16.63;;;6.65;;
32734;SDS011;19112;51.076;3.706;2023-06-24T01:45:06;15.57;;;7.00;;
32734;SDS011;19112;51.076;3.706;2023-06-24T01:47:47;15.80;;;6.93;;
32734;SDS011;19112;51.076;3.706;2023-06-24T01:50:19;16.98;;;6.78;;
32734;SDS011;19112;51.076;3.706;2023-06-24T01:52:47;16.50;;;6.88;;
32734;SDS011;19112;51.076;3.706;2023-06-24T01:55:18;20.83;;;6.97;;
32734;SDS011;19112;51.076;3.706;2023-06-24T01:57:46;16.13;;;6.90;;
32734;SDS011;19112;51.076;3.706;2023-06-24T02:00:15;16.33;;;6.72;;
32734;SDS011;19112;51.076;3.706;2023-06-24T02:02:42;15.77;;;6.20;;
32734;SDS011;19112;51.076;3.706;2023-06-24T02:05:10;18.13;;;7.07;;
32734;SDS011;19112;51.076;3.706;2023-06-24T02:07:36;16.27;;;6.70;;
32734;SDS011;19112;51.076;3.706;2023-06-24T02:10:04;18.33;;;7.38;;
32734;SDS011;19112;51.076;3.706;2023-06-24T02:12:32;18.23;;;6.95;;
32734;SDS011;19112;51.076;3.706;2023-06-24T02:15:00;17.90;;;6.97;;
32734;SDS011;19112;51.076;3.706;2023-06-24T02:17:29;17.05;;;6.75;;
32734;SDS011;19112;51.076;3.706;2023-06-24T02:19:55;19.45;;;7.03;;
32734;SDS011;19112;51.076;3.706;2023-06-24T02:22:22;17.40;;;6.95;;
32734;SDS011;19112;51.076;3.706;2023-06-24T02:24:49;17.55;;;7.30;;
32734;SDS011;19112;51.076;3.706;2023-06-24T02:27:16;17.77;;;7.63;;
32734;SDS011;19112;51.076;3.706;2023-06-24T02:29:42;18.58;;;7.30;;
32734;SDS011;19112;51.076;3.706;2023-06-24T02:32:08;17.80;;;7.53;;
32734;SDS011;19112;51.076;3.706;2023-06-24T02:34:35;18.25;;;6.95;;
32734;SDS011;19112;51.076;3.706;2023-06-24T02:37:01;18.60;;;7.47;;
32734;SDS011;19112;51.076;3.706;2023-06-24T02:39:26;19.50;;;7.25;;
32734;SDS011;19112;51.076;3.706;2023-06-24T02:41:52;19.50;;;7.75;;
32734;SDS011;19112;51.076;3.706;2023-06-24T02:44:18;18.83;;;7.88;;
32734;SDS011;19112;51.076;3.706;2023-06-24T02:46:44;19.88;;;8.25;;
32734;SDS011;19112;51.076;3.706;2023-06-24T02:49:13;18.88;;;7.75;;
32734;SDS011;19112;51.076;3.706;2023-06-24T02:51:42;18.48;;;7.43;;
32734;SDS011;19112;51.076;3.706;2023-06-24T02:54:09;18.65;;;7.63;;
32734;SDS011;19112;51.076;3.706;2023-06-24T02:56:37;17.83;;;7.55;;
32734;SDS011;19112;51.076;3.706;2023-06-24T02:59:06;20.90;;;8.68;;
32734;SDS011;19112;51.076;3.706;2023-06-24T03:01:33;19.65;;;7.78;;
32734;SDS011;19112;51.076;3.706;2023-06-24T03:04:04;16.98;;;7.47;;
32734;SDS011;19112;51.076;3.706;2023-06-24T03:06:30;18.70;;;8.05;;
32734;SDS011;19112;51.076;3.706;2023-06-24T03:08:57;19.80;;;7.55;;
32734;SDS011;19112;51.076;3.706;2023-06-24T03:11:25;18.42;;;8.32;;
32734;SDS011;19112;51.076;3.706;2023-06-24T03:13:53;20.13;;;8.50;;
32734;SDS011;19112;51.076;3.706;2023-06-24T03:16:19;19.75;;;8.00;;
32734;SDS011;19112;51.076;3.706;2023-06-24T03:18:45;19.50;;;8.07;;
32734;SDS011;19112;51.076;3.706;2023-06-24T03:21:11;19.35;;;8.20;;
32734;SDS011;19112;51.076;3.706;2023-06-24T03:23:37;20.20;;;8.50;;
32734;SDS011;19112;51.076;3.706;2023-06-24T03:26:03;21.25;;;9.18;;
32734;SDS011;19112;51.076;3.706;2023-06-24T03:28:29;19.95;;;8.32;;
32734;SDS011;19112;51.076;3.706;2023-06-24T03:30:56;20.65;;;9.25;;
32734;SDS011;19112;51.076;3.706;2023-06-24T03:33:23;20.35;;;8.70;;
32734;SDS011;19112;51.076;3.706;2023-06-24T03:35:51;22.48;;;8.88;;
32734;SDS011;19112;51.076;3.706;2023-06-24T03:38:17;20.35;;;8.30;;
32734;SDS011;19112;51.076;3.706;2023-06-24T03:40:43;19.92;;;8.32;;
32734;SDS011;19112;51.076;3.706;2023-06-24T03:43:09;21.30;;;8.93;;
32734;SDS011;19112;51.076;3.706;2023-06-24T03:45:35;20.33;;;8.18;;
32734;SDS011;19112;51.076;3.706;2023-06-24T03:48:01;23.10;;;8.77;;
32734;SDS011;19112;51.076;3.706;2023-06-24T03:50:27;19.20;;;8.63;;
32734;SDS011;19112;51.076;3.706;2023-06-24T03:52:53;20.02;;;8.48;;
32734;SDS011;19112;51.076;3.706;2023-06-24T03:55:19;20.38;;;8.65;;
32734;SDS011;19112;51.076;3.706;2023-06-24T03:57:44;20.20;;;8.38;;
32734;SDS011;19112;51.076;3.706;2023-06-24T04:00:10;19.90;;;8.38;;
32734;SDS011;19112;51.076;3.706;2023-06-24T04:02:41;22.00;;;9.20;;
32734;SDS011;19112;51.076;3.706;2023-06-24T04:05:08;19.95;;;8.43;;
32734;SDS011;19112;51.076;3.706;2023-06-24T04:07:35;19.40;;;8.48;;
32734;SDS011;19112;51.076;3.706;2023-06-24T04:10:02;20.85;;;9.35;;
32734;SDS011;19112;51.076;3.706;2023-06-24T04:12:37;20.27;;;8.48;;
32734;SDS011;19112;51.076;3.706;2023-06-24T04:15:03;19.35;;;9.07;;
32734;SDS011;19112;51.076;3.706;2023-06-24T04:17:30;22.20;;;9.05;;
32734;SDS011;19112;51.076;3.706;2023-06-24T04:19:56;21.58;;;9.45;;
32734;SDS011;19112;51.076;3.706;2023-06-24T04:22:23;22.08;;;9.48;;
32734;SDS011;19112;51.076;3.706;2023-06-24T04:24:50;22.23;;;8.40;;
32734;SDS011;19112;51.076;3.706;2023-06-24T04:27:16;19.65;;;8.85;;
32734;SDS011;19112;51.076;3.706;2023-06-24T04:29:42;19.02;;;8.25;;
32734;SDS011;19112;51.076;3.706;2023-06-24T04:32:07;19.27;;;8.32;;
32734;SDS011;19112;51.076;3.706;2023-06-24T04:34:33;19.98;;;7.82;;
32734;SDS011;19112;51.076;3.706;2023-06-24T04:36:59;19.00;;;8.00;;
32734;SDS011;19112;51.076;3.706;2023-06-24T04:39:25;18.98;;;7.65;;
32734;SDS011;19112;51.076;3.706;2023-06-24T04:41:51;19.65;;;8.38;;
32734;SDS011;19112;51.076;3.706;2023-06-24T04:44:16;20.25;;;8.25;;
32734;SDS011;19112;51.076;3.706;2023-06-24T04:46:42;17.88;;;8.23;;
32734;SDS011;19112;51.076;3.706;2023-06-24T04:49:08;15.93;;;7.43;;
32734;SDS011;19112;51.076;3.706;2023-06-24T04:51:34;18.25;;;7.75;;
32734;SDS011;19112;51.076;3.706;2023-06-24T04:54:01;17.88;;;8.25;;
32734;SDS011;19112;51.076;3.706;2023-06-24T04:56:28;17.90;;;7.93;;
32734;SDS011;19112;51.076;3.706;2023-06-24T04:58:54;18.80;;;8.10;;
32734;SDS011;19112;51.076;3.706;2023-06-24T05:01:21;19.25;;;8.35;;
32734;SDS011;19112;51.076;3.706;2023-06-24T05:03:47;21.77;;;9.35;;
32734;SDS011;19112;51.076;3.706;2023-06-24T05:06:13;20.25;;;8.55;;
32734;SDS011;19112;51.076;3.706;2023-06-24T05:08:39;20.73;;;9.20;;
32734;SDS011;19112;51.076;3.706;2023-06-24T05:11:05;21.98;;;9.00;;
32734;SDS011;19112;51.076;3.706;2023-06-24T05:13:30;20.20;;;9.02;;
32734;SDS011;19112;51.076;3.706;2023-06-24T05:15:56;18.23;;;8.85;;
32734;SDS011;19112;51.076;3.706;2023-06-24T05:18:22;20.30;;;9.23;;
32734;SDS011;19112;51.076;3.706;2023-06-24T05:20:48;20.45;;;8.98;;
32734;SDS011;19112;51.076;3.706;2023-06-24T05:23:14;22.92;;;9.05;;
32734;SDS011;19112;51.076;3.706;2023-06-24T05:25:40;20.35;;;9.38;;
32734;SDS011;19112;51.076;3.706;2023-06-24T05:28:06;19.67;;;9.45;;
32734;SDS011;19112;51.076;3.706;2023-06-24T05:30:31;20.92;;;9.40;;
32734;SDS011;19112;51.076;3.706;2023-06-24T05:32:57;19.63;;;9.50;;
32734;SDS011;19112;51.076;3.706;2023-06-24T05:35:23;20.38;;;9.25;;
32734;SDS011;19112;51.076;3.706;2023-06-24T05:37:49;22.23;;;9.75;;
32734;SDS011;19112;51.076;3.706;2023-06-24T05:40:15;21.25;;;9.45;;
32734;SDS011;19112;51.076;3.706;2023-06-24T05:42:40;21.10;;;9.85;;
32734;SDS011;19112;51.076;3.706;2023-06-24T05:45:06;23.60;;;10.13;;
32734;SDS011;19112;51.076;3.706;2023-06-24T05:47:33;25.65;;;11.75;;
32734;SDS011;19112;51.076;3.706;2023-06-24T05:49:58;21.85;;;10.45;;
32734;SDS011;19112;51.076;3.706;2023-06-24T05:52:24;24.23;;;9.73;;
32734;SDS011;19112;51.076;3.706;2023-06-24T05:54:50;24.00;;;11.20;;
32734;SDS011;19112;51.076;3.706;2023-06-24T05:57:16;25.15;;;10.55;;
32734;SDS011;19112;51.076;3.706;2023-06-24T05:59:42;26.88;;;9.32;;
32734;SDS011;19112;51.076;3.706;2023-06-24T06:02:08;23.05;;;10.63;;
32734;SDS011;19112;51.076;3.706;2023-06-24T06:04:34;23.55;;;10.35;;
32734;SDS011;19112;51.076;3.706;2023-06-24T06:06:59;24.02;;;10.52;;
32734;SDS011;19112;51.076;3.706;2023-06-24T06:09:25;22.08;;;10.38;;
32734;SDS011;19112;51.076;3.706;2023-06-24T06:11:51;24.58;;;11.30;;
32734;SDS011;19112;51.076;3.706;2023-06-24T06:14:17;22.45;;;11.10;;
32734;SDS011;19112;51.076;3.706;2023-06-24T06:16:42;25.67;;;10.93;;
32734;SDS011;19112;51.076;3.706;2023-06-24T06:19:08;21.83;;;11.50;;
32734;SDS011;19112;51.076;3.706;2023-06-24T06:21:35;24.05;;;11.70;;
32734;SDS011;19112;51.076;3.706;2023-06-24T06:24:01;27.65;;;12.65;;
32734;SDS011;19112;51.076;3.706;2023-06-24T06:26:28;22.08;;;10.90;;
32734;SDS011;19112;51.076;3.706;2023-06-24T06:28:53;26.67;;;12.75;;
32734;SDS011;19112;51.076;3.706;2023-06-24T06:31:19;26.05;;;13.45;;
32734;SDS011;19112;51.076;3.706;2023-06-24T06:33:46;25.08;;;12.52;;
32734;SDS011;19112;51.076;3.706;2023-06-24T06:36:12;25.98;;;12.45;;
32734;SDS011;19112;51.076;3.706;2023-06-24T06:38:40;26.85;;;13.60;;
32734;SDS011;19112;51.076;3.706;2023-06-24T06:41:06;24.80;;;13.20;;
32734;SDS011;19112;51.076;3.706;2023-06-24T06:43:32;24.65;;;12.57;;
32734;SDS011;19112;51.076;3.706;2023-06-24T06:45:59;27.05;;;13.35;;
32734;SDS011;19112;51.076;3.706;2023-06-24T06:48:24;27.38;;;14.02;;
32734;SDS011;19112;51.076;3.706;2023-06-24T06:50:50;29.25;;;15.93;;
32734;SDS011;19112;51.076;3.706;2023-06-24T06:53:18;32.08;;;15.02;;
32734;SDS011;19112;51.076;3.706;2023-06-24T06:55:44;28.08;;;14.52;;
32734;SDS011;19112;51.076;3.706;2023-06-24T06:58:10;27.20;;;14.82;;
32734;SDS011;19112;51.076;3.706;2023-06-24T07:00:36;28.00;;;13.55;;
32734;SDS011;19112;51.076;3.706;2023-06-24T07:03:02;28.73;;;14.38;;
32734;SDS011;19112;51.076;3.706;2023-06-24T07:05:28;29.60;;;14.15;;
32734;SDS011;19112;51.076;3.706;2023-06-24T07:07:53;26.27;;;13.77;;
32734;SDS011;19112;51.076;3.706;2023-06-24T07:10:19;30.23;;;13.50;;
32734;SDS011;19112;51.076;3.706;2023-06-24T07:12:45;26.73;;;13.27;;
32734;SDS011;19112;51.076;3.706;2023-06-24T07:15:11;30.65;;;15.10;;
32734;SDS011;19112;51.076;3.706;2023-06-24T07:17:37;28.50;;;13.75;;
32734;SDS011;19112;51.076;3.706;2023-06-24T07:20:03;27.75;;;13.82;;
32734;SDS011;19112;51.076;3.706;2023-06-24T07:22:29;27.08;;;14.68;;
32734;SDS011;19112;51.076;3.706;2023-06-24T07:24:56;27.50;;;14.43;;
32734;SDS011;19112;51.076;3.706;2023-06-24T07:27:22;30.23;;;14.82;;
32734;SDS011;19112;51.076;3.706;2023-06-24T07:29:48;28.08;;;15.18;;
32734;SDS011;19112;51.076;3.706;2023-06-24T07:32:14;31.60;;;15.10;;
32734;SDS011;19112;51.076;3.706;2023-06-24T07:34:39;29.52;;;15.93;;
32734;SDS011;19112;51.076;3.706;2023-06-24T07:37:05;30.08;;;15.88;;
32734;SDS011;19112;51.076;3.706;2023-06-24T07:39:31;30.05;;;15.15;;
32734;SDS011;19112;51.076;3.706;2023-06-24T07:41:57;27.15;;;14.45;;
32734;SDS011;19112;51.076;3.706;2023-06-24T07:44:23;26.98;;;14.18;;
32734;SDS011;19112;51.076;3.706;2023-06-24T07:46:49;31.58;;;15.48;;
32734;SDS011;19112;51.076;3.706;2023-06-24T07:49:16;29.27;;;14.95;;
32734;SDS011;19112;51.076;3.706;2023-06-24T07:51:43;29.95;;;15.52;;
32734;SDS011;19112;51.076;3.706;2023-06-24T07:54:10;29.80;;;15.93;;
32734;SDS011;19112;51.076;3.706;2023-06-24T07:56:36;27.67;;;14.52;;
32734;SDS011;19112;51.076;3.706;2023-06-24T07:59:02;28.67;;;14.25;;
32734;SDS011;19112;51.076;3.706;2023-06-24T08:01:28;26.92;;;13.98;;
32734;SDS011;19112;51.076;3.706;2023-06-24T08:03:54;28.77;;;15.13;;
32734;SDS011;19112;51.076;3.706;2023-06-24T08:06:20;25.27;;;13.98;;
32734;SDS011;19112;51.076;3.706;2023-06-24T08:08:45;27.13;;;14.00;;
32734;SDS011;19112;51.076;3.706;2023-06-24T08:11:11;27.65;;;14.75;;
32734;SDS011;19112;51.076;3.706;2023-06-24T08:13:38;24.35;;;12.38;;
32734;SDS011;19112;51.076;3.706;2023-06-24T08:16:04;26.65;;;13.63;;
32734;SDS011;19112;51.076;3.706;2023-06-24T08:18:30;26.90;;;13.52;;
32734;SDS011;19112;51.076;3.706;2023-06-24T08:20:56;26.90;;;13.70;;
32734;SDS011;19112;51.076;3.706;2023-06-24T08:23:22;24.88;;;12.80;;
32734;SDS011;19112;51.076;3.706;2023-06-24T08:25:48;24.55;;;12.52;;
32734;SDS011;19112;51.076;3.706;2023-06-24T08:28:14;26.50;;;13.38;;
32734;SDS011;19112;51.076;3.706;2023-06-24T08:30:40;28.50;;;13.07;;
32734;SDS011;19112;51.076;3.706;2023-06-24T08:33:05;29.17;;;14.40;;
32734;SDS011;19112;51.076;3.706;2023-06-24T08:35:31;25.00;;;11.85;;
32734;SDS011;19112;51.076;3.706;2023-06-24T08:37:57;22.63;;;12.40;;
32734;SDS011;19112;51.076;3.706;2023-06-24T08:40:23;24.40;;;11.98;;
32734;SDS011;19112;51.076;3.706;2023-06-24T08:42:49;23.67;;;12.20;;
32734;SDS011;19112;51.076;3.706;2023-06-24T08:45:15;23.95;;;11.77;;
32734;SDS011;19112;51.076;3.706;2023-06-24T08:47:41;24.55;;;13.18;;
32734;SDS011;19112;51.076;3.706;2023-06-24T08:50:10;25.80;;;12.30;;
32734;SDS011;19112;51.076;3.706;2023-06-24T08:52:38;27.20;;;13.40;;
32734;SDS011;19112;51.076;3.706;2023-06-24T08:55:15;25.42;;;11.90;;
32734;SDS011;19112;51.076;3.706;2023-06-24T08:57:44;26.95;;;12.68;;
32734;SDS011;19112;51.076;3.706;2023-06-24T09:00:10;28.65;;;13.18;;
32734;SDS011;19112;51.076;3.706;2023-06-24T09:02:37;23.98;;;11.63;;
32734;SDS011;19112;51.076;3.706;2023-06-24T09:05:07;23.38;;;12.65;;
32734;SDS011;19112;51.076;3.706;2023-06-24T09:07:33;22.80;;;11.13;;
32734;SDS011;19112;51.076;3.706;2023-06-24T09:10:00;27.58;;;14.88;;
32734;SDS011;19112;51.076;3.706;2023-06-24T09:12:25;28.33;;;13.45;;
32734;SDS011;19112;51.076;3.706;2023-06-24T09:14:52;22.83;;;11.43;;
32734;SDS011;19112;51.076;3.706;2023-06-24T09:17:18;23.63;;;12.40;;
32734;SDS011;19112;51.076;3.706;2023-06-24T09:19:47;25.65;;;12.45;;
32734;SDS011;19112;51.076;3.706;2023-06-24T09:22:14;26.60;;;12.25;;
32734;SDS011;19112;51.076;3.706;2023-06-24T09:24:46;25.27;;;10.10;;
32734;SDS011;19112;51.076;3.706;2023-06-24T09:27:14;24.70;;;11.73;;
32734;SDS011;19112;51.076;3.706;2023-06-24T09:29:41;22.30;;;10.45;;
32734;SDS011;19112;51.076;3.706;2023-06-24T09:32:08;20.33;;;10.40;;
32734;SDS011;19112;51.076;3.706;2023-06-24T09:34:34;22.80;;;9.75;;
32734;SDS011;19112;51.076;3.706;2023-06-24T09:37:00;21.65;;;9.88;;
32734;SDS011;19112;51.076;3.706;2023-06-24T09:39:27;20.73;;;9.55;;
32734;SDS011;19112;51.076;3.706;2023-06-24T09:44:26;21.80;;;9.02;;
32734;SDS011;19112;51.076;3.706;2023-06-24T09:46:54;19.42;;;8.90;;
32734;SDS011;19112;51.076;3.706;2023-06-24T09:49:23;19.52;;;9.82;;
32734;SDS011;19112;51.076;3.706;2023-06-24T09:51:50;20.38;;;9.88;;
32734;SDS011;19112;51.076;3.706;2023-06-24T09:54:24;18.98;;;8.48;;
32734;SDS011;19112;51.076;3.706;2023-06-24T09:59:24;19.88;;;8.88;;
32734;SDS011;19112;51.076;3.706;2023-06-24T10:01:52;20.20;;;8.77;;
32734;SDS011;19112;51.076;3.706;2023-06-24T10:04:20;18.20;;;7.95;;
32734;SDS011;19112;51.076;3.706;2023-06-24T10:06:47;18.92;;;8.48;;
32734;SDS011;19112;51.076;3.706;2023-06-24T10:09:14;16.50;;;6.97;;
32734;SDS011;19112;51.076;3.706;2023-06-24T10:11:42;18.17;;;6.50;;
32734;SDS011;19112;51.076;3.706;2023-06-24T10:14:12;19.10;;;6.30;;
32734;SDS011;19112;51.076;3.706;2023-06-24T10:16:40;12.35;;;5.07;;
32734;SDS011;19112;51.076;3.706;2023-06-24T10:19:07;18.05;;;7.70;;
32734;SDS011;19112;51.076;3.706;2023-06-24T10:21:55;12.02;;;5.50;;
32734;SDS011;19112;51.076;3.706;2023-06-24T10:27:08;17.15;;;6.82;;
32734;SDS011;19112;51.076;3.706;2023-06-24T10:29:38;16.80;;;7.30;;
32734;SDS011;19112;51.076;3.706;2023-06-24T10:45:12;18.15;;;8.63;;
32734;SDS011;19112;51.076;3.706;2023-06-24T10:47:51;18.08;;;6.72;;
32734;SDS011;19112;51.076;3.706;2023-06-24T10:50:18;15.85;;;7.38;;
32734;SDS011;19112;51.076;3.706;2023-06-24T10:52:46;16.05;;;7.00;;
32734;SDS011;19112;51.076;3.706;2023-06-24T10:55:14;16.90;;;6.55;;
32734;SDS011;19112;51.076;3.706;2023-06-24T10:57:42;13.27;;;6.20;;
32734;SDS011;19112;51.076;3.706;2023-06-24T11:00:08;19.05;;;6.60;;
32734;SDS011;19112;51.076;3.706;2023-06-24T11:02:35;16.77;;;7.20;;
32734;SDS011;19112;51.076;3.706;2023-06-24T11:05:02;21.05;;;8.40;;
32734;SDS011;19112;51.076;3.706;2023-06-24T11:07:30;17.80;;;7.72;;
32734;SDS011;19112;51.076;3.706;2023-06-24T11:10:12;20.02;;;8.40;;
32734;SDS011;19112;51.076;3.706;2023-06-24T11:12:40;13.73;;;6.05;;
32734;SDS011;19112;51.076;3.706;2023-06-24T11:15:08;18.23;;;7.70;;
32734;SDS011;19112;51.076;3.706;2023-06-24T11:17:38;20.15;;;8.50;;
32734;SDS011;19112;51.076;3.706;2023-06-24T11:20:10;13.98;;;6.22;;
32734;SDS011;19112;51.076;3.706;2023-06-24T11:22:39;18.37;;;7.30;;
32734;SDS011;19112;51.076;3.706;2023-06-24T11:25:06;12.43;;;5.78;;
32734;SDS011;19112;51.076;3.706;2023-06-24T11:27:39;17.30;;;6.68;;
32734;SDS011;19112;51.076;3.706;2023-06-24T11:30:05;18.30;;;7.10;;
32734;SDS011;19112;51.076;3.706;2023-06-24T11:32:41;12.98;;;5.63;;
32734;SDS011;19112;51.076;3.706;2023-06-24T11:35:09;17.27;;;6.18;;
32734;SDS011;19112;51.076;3.706;2023-06-24T11:37:43;10.65;;;4.82;;
32734;SDS011;19112;51.076;3.706;2023-06-24T11:40:12;10.90;;;4.87;;
32734;SDS011;19112;51.076;3.706;2023-06-24T11:42:41;18.65;;;8.63;;
32734;SDS011;19112;51.076;3.706;2023-06-24T11:45:10;17.00;;;7.88;;
32734;SDS011;19112;51.076;3.706;2023-06-24T11:47:37;17.70;;;8.38;;
32734;SDS011;19112;51.076;3.706;2023-06-24T11:50:05;15.48;;;6.43;;
32734;SDS011;19112;51.076;3.706;2023-06-24T11:55:10;15.70;;;6.55;;
32734;SDS011;19112;51.076;3.706;2023-06-24T11:57:57;14.30;;;6.35;;
32734;SDS011;19112;51.076;3.706;2023-06-24T12:00:28;18.38;;;7.95;;
32734;SDS011;19112;51.076;3.706;2023-06-24T12:02:57;19.52;;;8.23;;
32734;SDS011;19112;51.076;3.706;2023-06-24T12:05:31;18.48;;;8.10;;
32734;SDS011;19112;51.076;3.706;2023-06-24T12:07:59;17.42;;;7.57;;
32734;SDS011;19112;51.076;3.706;2023-06-24T12:10:34;18.50;;;7.18;;
32734;SDS011;19112;51.076;3.706;2023-06-24T12:13:01;17.88;;;7.60;;
32734;SDS011;19112;51.076;3.706;2023-06-24T12:15:29;14.35;;;6.78;;
32734;SDS011;19112;51.076;3.706;2023-06-24T12:17:55;17.50;;;7.90;;
32734;SDS011;19112;51.076;3.706;2023-06-24T12:20:21;19.15;;;7.15;;
32734;SDS011;19112;51.076;3.706;2023-06-24T12:22:49;19.33;;;7.30;;
32734;SDS011;19112;51.076;3.706;2023-06-24T12:25:16;11.57;;;5.28;;
32734;SDS011;19112;51.076;3.706;2023-06-24T12:27:42;15.07;;;6.43;;
32734;SDS011;19112;51.076;3.706;2023-06-24T12:30:10;19.27;;;8.02;;
32734;SDS011;19112;51.076;3.706;2023-06-24T12:32:37;14.75;;;6.68;;
32734;SDS011;19112;51.076;3.706;2023-06-24T12:35:03;17.90;;;7.65;;
32734;SDS011;19112;51.076;3.706;2023-06-24T12:37:30;19.00;;;8.82;;
32734;SDS011;19112;51.076;3.706;2023-06-24T12:39:58;17.95;;;8.23;;
32734;SDS011;19112;51.076;3.706;2023-06-24T12:42:24;16.33;;;6.72;;
32734;SDS011;19112;51.076;3.706;2023-06-24T12:44:51;15.93;;;6.50;;
32734;SDS011;19112;51.076;3.706;2023-06-24T12:47:17;11.38;;;5.18;;
32734;SDS011;19112;51.076;3.706;2023-06-24T12:49:43;14.90;;;6.07;;
32734;SDS011;19112;51.076;3.706;2023-06-24T12:52:09;18.38;;;5.70;;
32734;SDS011;19112;51.076;3.706;2023-06-24T12:54:35;20.13;;;8.00;;
32734;SDS011;19112;51.076;3.706;2023-06-24T12:57:01;17.35;;;8.18;;
32734;SDS011;19112;51.076;3.706;2023-06-24T12:59:27;20.45;;;8.35;;
32734;SDS011;19112;51.076;3.706;2023-06-24T13:01:53;17.38;;;8.00;;
32734;SDS011;19112;51.076;3.706;2023-06-24T13:04:19;19.88;;;9.23;;
32734;SDS011;19112;51.076;3.706;2023-06-24T13:06:47;18.58;;;7.40;;
32734;SDS011;19112;51.076;3.706;2023-06-24T13:09:14;16.67;;;6.70;;
32734;SDS011;19112;51.076;3.706;2023-06-24T13:11:40;20.33;;;8.27;;
32734;SDS011;19112;51.076;3.706;2023-06-24T13:14:06;17.85;;;7.20;;
32734;SDS011;19112;51.076;3.706;2023-06-24T13:16:31;14.30;;;6.53;;
32734;SDS011;19112;51.076;3.706;2023-06-24T13:18:58;17.83;;;7.53;;
32734;SDS011;19112;51.076;3.706;2023-06-24T13:21:23;14.88;;;5.80;;
32734;SDS011;19112;51.076;3.706;2023-06-24T13:23:49;13.02;;;5.72;;
32734;SDS011;19112;51.076;3.706;2023-06-24T13:26:15;15.30;;;6.10;;
32734;SDS011;19112;51.076;3.706;2023-06-24T13:28:41;15.45;;;6.85;;
32734;SDS011;19112;51.076;3.706;2023-06-24T13:31:07;16.90;;;6.38;;
32734;SDS011;19112;51.076;3.706;2023-06-24T13:33:33;14.25;;;6.20;;
32734;SDS011;19112;51.076;3.706;2023-06-24T13:35:58;14.43;;;6.75;;
32734;SDS011;19112;51.076;3.706;2023-06-24T13:38:24;16.45;;;5.90;;
32734;SDS011;19112;51.076;3.706;2023-06-24T13:40:50;13.77;;;5.18;;
32734;SDS011;19112;51.076;3.706;2023-06-24T13:43:16;15.60;;;6.75;;
32734;SDS011;19112;51.076;3.706;2023-06-24T13:45:42;14.82;;;6.30;;
32734;SDS011;19112;51.076;3.706;2023-06-24T13:48:08;11.15;;;5.28;;
32734;SDS011;19112;51.076;3.706;2023-06-24T13:50:34;13.05;;;5.80;;
32734;SDS011;19112;51.076;3.706;2023-06-24T13:53:00;11.95;;;5.22;;
32734;SDS011;19112;51.076;3.706;2023-06-24T13:55:26;9.73;;;4.30;;
32734;SDS011;19112;51.076;3.706;2023-06-24T13:57:52;14.63;;;5.55;;
32734;SDS011;19112;51.076;3.706;2023-06-24T14:00:18;13.30;;;4.70;;
32734;SDS011;19112;51.076;3.706;2023-06-24T14:02:45;8.93;;;4.43;;
32734;SDS011;19112;51.076;3.706;2023-06-24T14:05:11;11.50;;;4.90;;
32734;SDS011;19112;51.076;3.706;2023-06-24T14:07:36;14.35;;;5.85;;
32734;SDS011;19112;51.076;3.706;2023-06-24T14:10:02;11.05;;;4.03;;
32734;SDS011;19112;51.076;3.706;2023-06-24T14:12:29;14.13;;;5.50;;
32734;SDS011;19112;51.076;3.706;2023-06-24T14:14:55;13.13;;;4.80;;
32734;SDS011;19112;51.076;3.706;2023-06-24T14:17:21;12.48;;;4.65;;
32734;SDS011;19112;51.076;3.706;2023-06-24T14:19:47;13.05;;;5.50;;
32734;SDS011;19112;51.076;3.706;2023-06-24T14:22:13;11.55;;;4.80;;
32734;SDS011;19112;51.076;3.706;2023-06-24T14:24:38;10.00;;;4.38;;
32734;SDS011;19112;51.076;3.706;2023-06-24T14:27:05;9.00;;;4.35;;
32734;SDS011;19112;51.076;3.706;2023-06-24T14:29:32;9.63;;;3.83;;
32734;SDS011;19112;51.076;3.706;2023-06-24T14:31:57;8.73;;;3.97;;
32734;SDS011;19112;51.076;3.706;2023-06-24T14:34:23;10.27;;;3.58;;
32734;SDS011;19112;51.076;3.706;2023-06-24T14:36:49;11.20;;;4.00;;
32734;SDS011;19112;51.076;3.706;2023-06-24T14:39:15;12.00;;;5.15;;
32734;SDS011;19112;51.076;3.706;2023-06-24T14:41:42;12.95;;;5.70;;
32734;SDS011;19112;51.076;3.706;2023-06-24T14:44:09;9.15;;;4.40;;
32734;SDS011;19112;51.076;3.706;2023-06-24T14:46:34;8.48;;;4.05;;
32734;SDS011;19112;51.076;3.706;2023-06-24T14:49:00;10.13;;;3.92;;
32734;SDS011;19112;51.076;3.706;2023-06-24T14:51:27;7.95;;;3.50;;
32734;SDS011;19112;51.076;3.706;2023-06-24T14:53:53;8.57;;;3.42;;
32734;SDS011;19112;51.076;3.706;2023-06-24T14:56:18;8.18;;;3.70;;
32734;SDS011;19112;51.076;3.706;2023-06-24T14:58:44;6.18;;;3.20;;
32734;SDS011;19112;51.076;3.706;2023-06-24T15:01:10;6.13;;;3.03;;
32734;SDS011;19112;51.076;3.706;2023-06-24T15:03:36;6.95;;;3.13;;
32734;SDS011;19112;51.076;3.706;2023-06-24T15:06:02;9.55;;;3.33;;
32734;SDS011;19112;51.076;3.706;2023-06-24T15:08:28;8.73;;;3.45;;
32734;SDS011;19112;51.076;3.706;2023-06-24T15:10:54;6.32;;;3.10;;
32734;SDS011;19112;51.076;3.706;2023-06-24T15:13:19;8.57;;;3.03;;